Heartland, Texas
Current Conditions -  °F | °C
As of 7:50 PM on Friday 24 Oct 2014 (Local Time) from KHQZ Reporting Station
Clear Clear  
Wind Chill: 72°   Ceiling: Unl
Heat Index: 72°   Visibility: 10mi
Dew Point: 59°   Wind: 7mph
Humidity: 64%   Direction: 120°ESE
Pressure: 30.09"   Gusts: NA
Location:  32.7342°N, 96.451°W
Report Text: KHQZ 250050Z 12006KT 10SM CLR 22/15 A3009
Loading
Personal Weather Stations






























Interactive Weather Map
Tropical Storm Tracking
New forecast layout! Learn more

10-Day Weather Forecast

Advertisements
Track Severe Weather on mobile